Time;durP1;ratioP1;P1;durP2;ratioP2;P2;SDS_P1;SDS_P2;PMS_P1;PMS_P2;Temp;Humidity;BMP_temperature;BMP_pressure;BME280_temperature;BME280_humidity;BME280_pressure;Samples;Min_cycle;Max_cycle;Signal;HPM_P1;HPM_P2
2022/11/08 00:01:36;;;;;;;10.93;9.93;;;13.00;34.30;;;;;;4979578;28;20428;-51
2022/11/08 00:04:06;;;;;;;10.77;10.27;;;12.90;34.30;;;;;;4979390;28;20866;-54
2022/11/08 00:14:47;;;;;;;10.63;9.83;;;12.90;34.00;;;;;;4978822;28;20416;-53
2022/11/08 00:17:18;;;;;;;10.87;10.33;;;12.90;34.00;;;;;;4978979;28;20414;-51
2022/11/08 00:19:44;;;;;;;10.53;9.87;;;12.90;34.00;;;;;;4978118;28;20428;-53
2022/11/08 00:22:11;;;;;;;11.27;10.47;;;12.90;34.00;;;;;;4978675;28;20417;-52
2022/11/08 00:24:36;;;;;;;10.33;9.83;;;12.90;34.10;;;;;;4980995;28;20682;-50
2022/11/08 00:27:04;;;;;;;10.13;9.73;;;12.80;34.10;;;;;;4978575;28;20420;-53
2022/11/08 00:29:29;;;;;;;9.40;9.10;;;12.80;34.00;;;;;;4979542;28;20212;-53
2022/11/08 00:31:55;;;;;;;10.50;10.07;;;12.80;34.00;;;;;;4976022;28;20913;-53
2022/11/08 00:34:21;;;;;;;9.93;9.53;;;12.70;34.50;;;;;;4977300;28;20653;-54
2022/11/08 00:36:46;;;;;;;10.83;10.13;;;12.70;34.40;;;;;;4979016;28;20174;-52
2022/11/08 00:39:12;;;;;;;14.83;11.23;;;12.70;34.30;;;;;;4979108;28;20232;-53
2022/11/08 00:41:38;;;;;;;10.03;9.63;;;12.80;34.50;;;;;;4976577;28;20193;-53
2022/11/08 00:44:04;;;;;;;10.33;9.87;;;12.80;35.10;;;;;;4979022;28;20664;-53
2022/11/08 00:46:29;;;;;;;11.00;10.50;;;12.80;34.40;;;;;;4979618;28;20188;-54
2022/11/08 00:48:55;;;;;;;10.23;9.63;;;12.70;34.10;;;;;;4978857;28;20469;-54
2022/11/08 00:51:20;;;;;;;10.80;10.00;;;12.80;34.00;;;;;;4979164;28;20273;-53
2022/11/08 00:53:46;;;;;;;9.73;9.13;;;12.70;33.90;;;;;;4976669;28;20292;-54
2022/11/08 00:56:12;;;;;;;10.60;10.10;;;12.70;34.20;;;;;;4981857;28;20174;-54
2022/11/08 00:58:40;;;;;;;10.43;10.00;;;12.70;35.10;;;;;;4982730;28;20188;-52
2022/11/08 01:01:11;;;;;;;10.80;10.30;;;12.70;34.30;;;;;;4979695;28;20421;-56
2022/11/08 01:03:36;;;;;;;10.33;9.83;;;12.70;34.10;;;;;;4981732;28;20432;-54
2022/11/08 01:06:04;;;;;;;10.77;10.27;;;12.70;33.90;;;;;;4979893;28;20480;-51
2022/11/08 01:08:30;;;;;;;10.97;10.40;;;12.70;34.40;;;;;;4981572;28;20248;-54
2022/11/08 01:10:56;;;;;;;11.20;10.33;;;12.70;33.90;;;;;;4981748;28;20425;-54
2022/11/08 01:13:22;;;;;;;10.67;9.97;;;12.70;33.90;;;;;;4982717;28;20764;-52
2022/11/08 01:15:48;;;;;;;10.17;9.67;;;12.70;33.90;;;;;;4983050;28;20174;-53
2022/11/08 01:18:15;;;;;;;10.23;9.83;;;12.60;33.80;;;;;;4981132;28;20496;-54
2022/11/08 01:20:42;;;;;;;10.83;10.43;;;12.70;34.00;;;;;;4980002;28;20425;-51
2022/11/08 01:23:09;;;;;;;10.40;9.80;;;12.70;34.10;;;;;;4980723;28;20421;-53
2022/11/08 01:25:36;;;;;;;11.10;10.40;;;12.60;34.20;;;;;;4980719;28;20425;-54
2022/11/08 01:28:02;;;;;;;10.40;9.90;;;12.60;34.20;;;;;;4983471;28;20925;-53
2022/11/08 01:30:28;;;;;;;11.07;10.67;;;12.60;33.80;;;;;;4980060;28;20559;-51
2022/11/08 01:32:53;;;;;;;10.27;9.67;;;12.60;33.80;;;;;;4979150;28;20759;-54
2022/11/08 01:35:19;;;;;;;10.90;10.40;;;12.60;34.50;;;;;;4980517;28;20174;-53
2022/11/08 01:37:45;;;;;;;10.63;10.20;;;12.60;34.10;;;;;;4979910;28;20185;-52
2022/11/08 01:40:11;;;;;;;11.00;10.47;;;12.50;34.00;;;;;;4980717;28;20174;-52
2022/11/08 01:42:36;;;;;;;10.77;10.13;;;12.50;34.50;;;;;;4980806;28;20233;-52
2022/11/08 01:45:06;;;;;;;11.27;10.67;;;12.50;34.50;;;;;;4980405;28;20416;-54
2022/11/08 01:47:31;;;;;;;10.97;10.27;;;12.60;34.50;;;;;;4980092;28;20182;-53
2022/11/08 01:50:02;;;;;;;11.77;11.07;;;12.60;34.50;;;;;;4982064;28;20467;-51
2022/11/08 01:52:53;;;;;;;11.23;10.47;;;12.60;34.00;;;;;;4981149;28;20182;-50
2022/11/08 01:55:25;;;;;;;10.07;9.67;;;12.60;34.50;;;;;;4982470;28;20784;-53
2022/11/08 01:58:06;;;;;;;11.10;10.50;;;12.60;34.70;;;;;;4983527;28;20835;-53
2022/11/08 02:00:34;;;;;;;10.90;10.40;;;12.60;34.60;;;;;;4980333;28;20421;-51
2022/11/08 02:03:02;;;;;;;11.93;11.23;;;12.60;34.70;;;;;;4981818;28;20422;-52
2022/11/08 02:05:30;;;;;;;11.03;10.53;;;12.60;34.70;;;;;;4980693;28;20433;-50
2022/11/08 02:08:14;;;;;;;11.77;11.07;;;12.60;34.80;;;;;;4980309;28;20513;-53
2022/11/08 02:10:42;;;;;;;11.87;11.27;;;12.50;34.70;;;;;;4981885;28;20528;-52
2022/11/08 02:13:11;;;;;;;11.93;11.37;;;12.60;34.80;;;;;;4980243;28;20420;-55
2022/11/08 02:15:37;;;;;;;11.67;11.07;;;12.50;34.90;;;;;;4981252;28;20504;-52
2022/11/08 02:18:03;;;;;;;12.13;11.43;;;12.50;34.90;;;;;;4981139;28;20829;-53
2022/11/08 02:20:29;;;;;;;11.77;11.27;;;12.40;35.00;;;;;;4979640;28;20257;-54
2022/11/08 02:22:58;;;;;;;11.57;10.80;;;12.40;35.10;;;;;;4979507;28;20417;-52
2022/11/08 02:25:24;;;;;;;11.60;11.00;;;12.40;35.40;;;;;;4979826;28;20413;-53
2022/11/08 02:27:49;;;;;;;11.80;11.30;;;12.40;35.50;;;;;;4979433;28;20427;-51
2022/11/08 02:30:15;;;;;;;12.57;11.90;;;12.40;35.60;;;;;;4979992;28;20205;-51
2022/11/08 02:32:41;;;;;;;12.27;11.67;;;12.30;35.30;;;;;;4979980;28;20181;-51
2022/11/08 02:35:16;;;;;;;13.10;12.30;;;12.30;35.40;;;;;;4979215;28;20650;-53
2022/11/08 02:37:42;;;;;;;12.50;11.80;;;12.30;35.80;;;;;;4981405;28;20424;-52
2022/11/08 02:40:09;;;;;;;12.57;11.87;;;12.30;35.60;;;;;;4979274;28;20428;-51
2022/11/08 02:42:37;;;;;;;11.97;11.27;;;12.20;35.50;;;;;;4979752;28;20491;-53
2022/11/08 02:45:05;;;;;;;13.43;12.73;;;12.30;35.90;;;;;;4981489;28;20515;-52
2022/11/08 02:47:30;;;;;;;12.80;11.80;;;12.20;35.90;;;;;;4979281;28;20428;-53
2022/11/08 02:49:56;;;;;;;12.10;11.50;;;12.20;35.90;;;;;;4978605;28;20904;-53
2022/11/08 02:52:21;;;;;;;11.57;10.93;;;12.20;35.50;;;;;;4982217;28;20230;-53
2022/11/08 02:54:47;;;;;;;11.30;10.80;;;12.20;35.50;;;;;;4980037;28;20174;-54
2022/11/08 02:57:13;;;;;;;11.50;11.00;;;12.20;35.30;;;;;;4980137;28;20181;-53
2022/11/08 02:59:38;;;;;;;11.43;10.83;;;12.20;35.20;;;;;;4983119;28;20188;-53
2022/11/08 03:02:04;;;;;;;12.10;11.40;;;12.20;35.40;;;;;;4977707;28;20185;-55
2022/11/08 03:04:30;;;;;;;11.50;11.00;;;12.20;35.40;;;;;;4977444;28;20518;-51
2022/11/08 03:06:56;;;;;;;11.67;10.97;;;12.20;35.30;;;;;;4978387;28;20429;-52
2022/11/08 03:09:21;;;;;;;11.53;10.97;;;12.10;35.20;;;;;;4979408;28;20202;-53
2022/11/08 03:11:47;;;;;;;11.27;10.60;;;12.10;35.60;;;;;;4978078;28;20272;-54
2022/11/08 03:14:13;;;;;;;11.37;10.87;;;12.20;35.40;;;;;;4980195;28;20553;-52
2022/11/08 03:16:38;;;;;;;11.63;10.77;;;12.20;35.40;;;;;;4981551;28;20281;-53
2022/11/08 03:19:04;;;;;;;11.47;11.07;;;12.10;35.30;;;;;;4979919;28;20186;-51
2022/11/08 03:21:30;;;;;;;12.10;11.50;;;12.10;35.40;;;;;;4980713;28;20178;-50
2022/11/08 03:23:55;;;;;;;11.20;10.60;;;12.10;35.10;;;;;;4980267;28;20181;-53
2022/11/08 03:26:21;;;;;;;11.93;11.40;;;12.10;35.50;;;;;;4977747;28;20186;-49
2022/11/08 03:28:47;;;;;;;12.07;11.47;;;12.10;35.50;;;;;;4977563;28;20271;-53
2022/11/08 03:31:12;;;;;;;12.70;12.00;;;12.10;35.40;;;;;;4979010;28;20170;-52
2022/11/08 03:33:38;;;;;;;11.83;11.23;;;12.00;35.60;;;;;;4980922;28;20646;-51
2022/11/08 03:36:04;;;;;;;11.93;11.43;;;12.00;35.50;;;;;;4979529;28;20602;-52
2022/11/08 03:38:30;;;;;;;11.23;10.73;;;12.00;35.40;;;;;;4977657;28;20184;-54
2022/11/08 03:40:55;;;;;;;11.83;11.33;;;12.10;35.10;;;;;;4978050;28;20417;-54
2022/11/08 03:43:21;;;;;;;12.37;11.77;;;12.10;35.00;;;;;;4979896;28;20662;-53
2022/11/08 03:45:46;;;;;;;12.20;11.60;;;12.00;34.70;;;;;;4978900;28;20639;-52
2022/11/08 03:48:12;;;;;;;12.57;11.90;;;12.00;34.80;;;;;;4977851;28;20663;-52
2022/11/08 03:50:38;;;;;;;11.57;11.03;;;12.00;35.00;;;;;;4980334;28;20460;-52
2022/11/08 03:53:04;;;;;;;11.97;11.47;;;12.00;34.80;;;;;;4978020;28;20600;-53
2022/11/08 03:55:29;;;;;;;11.80;11.20;;;12.00;34.80;;;;;;4977982;28;20177;-52
2022/11/08 03:57:55;;;;;;;12.33;11.50;;;12.00;34.70;;;;;;4978882;28;20496;-52
2022/11/08 04:00:25;;;;;;;11.33;10.73;;;12.00;34.50;;;;;;4977576;28;20190;-53
2022/11/08 04:02:51;;;;;;;11.13;10.63;;;12.00;34.70;;;;;;4978305;28;20426;-52
2022/11/08 04:05:17;;;;;;;11.90;11.40;;;12.00;34.60;;;;;;4977494;28;20428;-53
2022/11/08 04:07:43;;;;;;;11.47;10.97;;;12.00;34.30;;;;;;4980363;28;20240;-48
2022/11/08 04:10:09;;;;;;;10.10;9.70;;;12.00;34.10;;;;;;4979875;28;20472;-49
2022/11/08 04:15:29;;;;;;;11.27;10.77;;;12.00;34.40;;;;;;4982633;28;20420;-52
2022/11/08 04:23:27;;;;;;;12.13;11.53;;;12.20;33.80;;;;;;4984304;28;20408;-51
2022/11/08 04:26:06;;;;;;;12.90;12.30;;;12.20;33.60;;;;;;4982500;28;20508;-52
2022/11/08 04:28:35;;;;;;;11.67;11.03;;;12.30;33.50;;;;;;4985438;28;20413;-51
2022/11/08 04:31:03;;;;;;;11.13;10.73;;;12.40;33.60;;;;;;4988829;28;20766;-51
2022/11/08 04:33:29;;;;;;;11.87;11.27;;;12.40;33.60;;;;;;4986897;28;20497;-54
2022/11/08 04:36:00;;;;;;;11.80;11.33;;;12.40;33.60;;;;;;4989146;28;20515;-52
2022/11/08 04:38:26;;;;;;;12.30;11.70;;;12.40;33.60;;;;;;4989668;28;20905;-54
2022/11/08 04:40:51;;;;;;;11.57;11.07;;;12.40;33.30;;;;;;4988321;28;20479;-52
2022/11/08 04:43:17;;;;;;;11.80;11.30;;;12.40;33.50;;;;;;4993420;28;20241;-52
2022/11/08 04:45:43;;;;;;;12.47;11.77;;;12.40;33.50;;;;;;4992021;28;20646;-50
2022/11/08 04:48:08;;;;;;;11.20;10.60;;;12.40;33.10;;;;;;4992570;28;20178;-52
2022/11/08 04:50:35;;;;;;;10.30;9.90;;;12.50;32.90;;;;;;4989401;28;20216;-52
2022/11/08 04:53:01;;;;;;;12.13;11.57;;;12.50;33.10;;;;;;4993016;28;20417;-52
2022/11/08 04:55:26;;;;;;;11.40;10.90;;;12.40;32.80;;;;;;4990218;28;20493;-52
2022/11/08 04:57:56;;;;;;;11.90;11.20;;;12.50;32.90;;;;;;4995251;28;20196;-53
2022/11/08 05:00:22;;;;;;;11.10;10.60;;;12.40;33.20;;;;;;4992850;28;20174;-53
2022/11/08 05:02:47;;;;;;;11.93;11.23;;;12.40;33.50;;;;;;4993056;28;20440;-50
2022/11/08 05:05:13;;;;;;;11.60;11.10;;;12.30;33.50;;;;;;4992753;28;20182;-54
2022/11/08 05:07:38;;;;;;;12.03;11.43;;;12.10;33.30;;;;;;4992837;28;20185;-53
2022/11/08 05:10:04;;;;;;;12.63;12.03;;;11.80;33.40;;;;;;4991426;28;20215;-54
2022/11/08 05:12:30;;;;;;;13.00;12.50;;;11.40;34.60;;;;;;4992427;28;20185;-54
2022/11/08 05:14:56;;;;;;;12.93;12.33;;;11.00;36.40;;;;;;4993442;28;20949;-54
2022/11/08 05:17:21;;;;;;;12.37;11.80;;;11.00;36.50;;;;;;4994021;28;20639;-52
2022/11/08 05:25:15;;;;;;;12.60;11.90;;;11.50;35.80;;;;;;4995780;28;20809;-54
2022/11/08 05:27:40;;;;;;;12.60;12.10;;;11.60;35.30;;;;;;4992480;28;20424;-53
2022/11/08 05:30:07;;;;;;;12.87;12.07;;;11.70;34.90;;;;;;4992293;28;20229;-53
2022/11/08 05:32:32;;;;;;;12.13;11.60;;;11.80;34.50;;;;;;4992818;28;20189;-54
2022/11/08 05:34:58;;;;;;;12.20;11.70;;;11.90;34.30;;;;;;4992964;28;20417;-54
2022/11/08 05:37:23;;;;;;;12.50;12.00;;;11.90;34.90;;;;;;4993632;28;20174;-53
2022/11/08 05:39:49;;;;;;;13.00;12.30;;;12.00;36.00;;;;;;4991331;28;20208;-51
2022/11/08 05:42:15;;;;;;;12.67;12.07;;;12.00;35.50;;;;;;4992331;28;20211;-52
2022/11/08 05:44:40;;;;;;;12.30;11.80;;;11.90;34.60;;;;;;4992738;28;20225;-54
2022/11/08 05:47:06;;;;;;;12.07;11.57;;;11.90;34.50;;;;;;4992763;28;20314;-53
2022/11/08 05:49:31;;;;;;;12.37;11.67;;;11.90;34.60;;;;;;4992611;28;20684;-53
2022/11/08 05:51:57;;;;;;;11.70;11.20;;;11.80;34.20;;;;;;4992939;28;20178;-53
2022/11/08 05:54:23;;;;;;;12.17;11.57;;;11.80;34.50;;;;;;4980962;28;20238;-53
2022/11/08 05:56:49;;;;;;;11.50;11.00;;;11.90;34.80;;;;;;4972128;28;20262;-50
2022/11/08 05:59:15;;;;;;;12.00;11.53;;;11.90;34.50;;;;;;4992192;28;20658;-52
2022/11/08 06:01:40;;;;;;;12.60;12.00;;;11.90;34.40;;;;;;4992178;28;20459;-54
2022/11/08 06:04:06;;;;;;;12.43;11.83;;;11.90;34.20;;;;;;4993680;28;20277;-54
2022/11/08 06:06:32;;;;;;;12.40;11.77;;;11.90;34.30;;;;;;4991712;28;20549;-52
2022/11/08 06:08:57;;;;;;;12.30;11.60;;;11.90;34.20;;;;;;4993472;28;20202;-54
2022/11/08 06:11:25;;;;;;;12.50;11.87;;;12.00;34.30;;;;;;4992226;28;20264;-53
2022/11/08 06:13:52;;;;;;;12.43;11.80;;;11.90;33.80;;;;;;4991689;28;20233;-54
2022/11/08 06:16:19;;;;;;;12.03;11.43;;;12.00;34.40;;;;;;4991965;28;20414;-54
2022/11/08 06:18:45;;;;;;;12.53;11.83;;;12.00;34.10;;;;;;4992105;28;20829;-51
2022/11/08 06:21:14;;;;;;;12.50;11.90;;;12.00;33.90;;;;;;4992449;28;20414;-54
2022/11/08 06:23:40;;;;;;;11.70;11.20;;;12.00;34.00;;;;;;4991837;28;20423;-54
2022/11/08 06:26:06;;;;;;;11.50;11.00;;;11.90;33.60;;;;;;4991376;28;20504;-51
2022/11/08 06:28:32;;;;;;;11.20;10.60;;;12.00;34.00;;;;;;4986998;28;20426;-50
2022/11/08 06:30:59;;;;;;;12.10;11.40;;;11.90;33.90;;;;;;4971910;28;20500;-50
2022/11/08 06:33:25;;;;;;;12.80;12.20;;;11.90;33.90;;;;;;4971435;28;20179;-51
2022/11/08 06:35:50;;;;;;;13.60;12.90;;;11.90;34.20;;;;;;4971617;28;20426;-51
2022/11/08 06:38:16;;;;;;;12.80;12.20;;;11.90;34.70;;;;;;4955499;28;20497;-50
2022/11/08 06:40:42;;;;;;;13.13;12.53;;;11.90;34.60;;;;;;4971833;28;20189;-50
2022/11/08 06:43:10;;;;;;;12.97;12.30;;;11.90;34.40;;;;;;4957180;28;20191;-50
2022/11/08 06:45:36;;;;;;;12.30;11.80;;;11.90;34.30;;;;;;4961373;28;20190;-50
2022/11/08 06:48:03;;;;;;;13.50;12.67;;;11.90;34.30;;;;;;4972865;28;20476;-50
2022/11/08 06:50:30;;;;;;;12.70;12.20;;;11.90;34.30;;;;;;4973085;28;20511;-50
2022/11/08 06:53:00;;;;;;;12.53;11.90;;;11.90;34.30;;;;;;4972778;28;20417;-50
2022/11/08 06:55:26;;;;;;;11.60;11.10;;;11.90;34.30;;;;;;4972178;28;20422;-50
2022/11/08 06:57:52;;;;;;;12.00;11.50;;;11.90;34.90;;;;;;4955923;28;20558;-51
2022/11/08 07:00:18;;;;;;;13.23;12.53;;;11.80;34.60;;;;;;4952496;29;20893;-53
2022/11/08 07:02:44;;;;;;;13.63;13.03;;;11.90;34.90;;;;;;4953855;29;20175;-51
2022/11/08 07:05:11;;;;;;;12.90;12.13;;;11.90;34.30;;;;;;4954216;28;20422;-51
2022/11/08 07:07:36;;;;;;;13.13;12.53;;;12.00;34.70;;;;;;4971851;28;20194;-53
2022/11/08 07:10:03;;;;;;;12.07;11.50;;;12.00;34.20;;;;;;4959128;28;20463;-51
2022/11/08 07:12:29;;;;;;;12.80;12.20;;;12.00;34.10;;;;;;4970295;28;20311;-52
2022/11/08 07:14:55;;;;;;;12.97;12.17;;;12.00;33.80;;;;;;4970628;28;21087;-50
2022/11/08 07:17:20;;;;;;;13.70;12.63;;;12.00;33.80;;;;;;4969754;28;20186;-54
2022/11/08 07:19:46;;;;;;;12.93;12.23;;;11.90;33.50;;;;;;4969675;28;20634;-54
2022/11/08 07:22:12;;;;;;;12.50;12.00;;;11.90;33.10;;;;;;4970137;28;20547;-54
2022/11/08 07:24:37;;;;;;;15.03;14.33;;;11.80;33.60;;;;;;4970729;28;20193;-53
2022/11/08 07:27:03;;;;;;;14.60;14.00;;;11.60;33.90;;;;;;4971163;28;20190;-53
2022/11/08 07:29:28;;;;;;;16.00;14.90;;;11.60;34.30;;;;;;4971457;28;20207;-53
2022/11/08 07:31:54;;;;;;;14.77;14.03;;;11.60;34.50;;;;;;4971670;28;20214;-50
2022/11/08 07:34:20;;;;;;;14.73;14.00;;;11.40;35.20;;;;;;4972725;28;20340;-56
2022/11/08 07:36:46;;;;;;;14.23;13.63;;;11.40;35.40;;;;;;4972220;28;20179;-52
2022/11/08 07:39:11;;;;;;;15.50;14.67;;;11.50;35.10;;;;;;4973378;28;20480;-51
2022/11/08 07:41:37;;;;;;;15.37;14.47;;;11.50;35.20;;;;;;4971447;28;20186;-50
2022/11/08 07:44:03;;;;;;;15.70;15.10;;;11.60;35.60;;;;;;4972048;28;20629;-53
2022/11/08 07:46:29;;;;;;;15.47;14.70;;;11.70;35.20;;;;;;4972208;28;20214;-50
2022/11/08 07:48:54;;;;;;;15.20;14.40;;;11.80;34.80;;;;;;4971456;28;20497;-51
2022/11/08 07:51:20;;;;;;;15.07;14.33;;;11.90;34.40;;;;;;4971181;28;20178;-51
2022/11/08 07:53:45;;;;;;;15.87;15.17;;;12.00;33.90;;;;;;4972005;28;20183;-52
2022/11/08 07:56:11;;;;;;;14.67;13.97;;;12.00;33.90;;;;;;4972045;28;20186;-54
2022/11/08 07:58:37;;;;;;;14.13;13.53;;;12.10;33.30;;;;;;4970869;28;20566;-51
2022/11/08 08:01:03;;;;;;;14.67;13.63;;;11.90;33.10;;;;;;4971411;28;20179;-51
2022/11/08 08:03:30;;;;;;;14.37;13.57;;;11.80;34.00;;;;;;4971288;28;20241;-52
2022/11/08 08:05:55;;;;;;;14.73;13.93;;;11.60;34.80;;;;;;4971829;28;20476;-50
2022/11/08 08:08:21;;;;;;;14.43;13.83;;;11.70;35.30;;;;;;4970887;28;20831;-49
2022/11/08 08:10:47;;;;;;;13.90;13.30;;;11.80;35.40;;;;;;4970942;28;20690;-51
2022/11/08 08:13:14;;;;;;;13.33;12.77;;;11.90;35.40;;;;;;4971710;28;20202;-51
2022/11/08 08:15:40;;;;;;;13.27;12.57;;;12.00;34.40;;;;;;4971567;28;20425;-51
2022/11/08 08:18:07;;;;;;;14.20;13.60;;;11.90;33.10;;;;;;4971836;28;20414;-57
2022/11/08 08:20:34;;;;;;;13.33;12.73;;;11.80;34.20;;;;;;4970846;28;20438;-55
2022/11/08 08:23:00;;;;;;;22.40;20.50;;;11.80;33.70;;;;;;4971664;28;20465;-54
2022/11/08 08:25:29;;;;;;;13.17;12.67;;;11.90;33.20;;;;;;4970644;28;20444;-56
2022/11/08 08:27:56;;;;;;;12.90;12.10;;;12.00;33.30;;;;;;4971987;28;20569;-53
2022/11/08 08:30:23;;;;;;;12.00;11.60;;;12.20;33.40;;;;;;4971206;28;20493;-55
2022/11/08 08:32:50;;;;;;;12.23;11.73;;;12.30;33.30;;;;;;4971341;28;20418;-56
2022/11/08 08:35:15;;;;;;;13.20;12.57;;;12.50;33.70;;;;;;4971973;28;20422;-55
2022/11/08 08:37:41;;;;;;;13.03;12.40;;;12.60;32.20;;;;;;4971939;28;20457;-55
2022/11/08 08:40:09;;;;;;;13.00;12.40;;;12.70;32.40;;;;;;4971035;28;20183;-53
2022/11/08 08:42:34;;;;;;;13.20;12.70;;;12.70;31.70;;;;;;4971183;28;20182;-54
2022/11/08 08:45:00;;;;;;;12.30;11.80;;;12.70;31.00;;;;;;4970103;28;20473;-54
2022/11/08 08:47:27;;;;;;;13.07;12.57;;;12.70;30.60;;;;;;4971414;28;20183;-54
2022/11/08 08:49:52;;;;;;;13.07;12.47;;;12.60;30.80;;;;;;4970953;28;20473;-56
2022/11/08 08:52:18;;;;;;;13.90;13.40;;;12.70;31.10;;;;;;4971176;28;20786;-55
2022/11/08 08:54:44;;;;;;;13.33;12.47;;;12.80;31.80;;;;;;4970605;28;20210;-56
2022/11/08 08:57:09;;;;;;;13.00;12.00;;;13.00;32.20;;;;;;4971612;28;20209;-56
2022/11/08 08:59:35;;;;;;;13.00;12.40;;;13.00;30.70;;;;;;4971500;28;20195;-55
2022/11/08 09:02:01;;;;;;;12.77;12.27;;;13.00;30.90;;;;;;4971117;28;20183;-55
2022/11/08 09:04:27;;;;;;;12.90;12.20;;;13.10;31.00;;;;;;4971690;28;20213;-56
2022/11/08 09:06:53;;;;;;;13.47;12.77;;;13.10;30.70;;;;;;4971753;28;20218;-55
2022/11/08 09:09:19;;;;;;;13.00;12.30;;;13.10;30.80;;;;;;4973167;28;20798;-56
2022/11/08 09:11:45;;;;;;;11.83;11.30;;;13.20;30.50;;;;;;4970869;28;20618;-56
2022/11/08 09:14:10;;;;;;;13.30;12.67;;;13.10;30.80;;;;;;4971030;28;20533;-56
2022/11/08 09:16:36;;;;;;;13.60;12.60;;;13.10;30.60;;;;;;4974686;28;20874;-55
2022/11/08 09:19:02;;;;;;;13.40;12.60;;;13.10;31.10;;;;;;4974874;28;20667;-55
2022/11/08 09:21:27;;;;;;;13.43;12.70;;;13.10;31.00;;;;;;4973846;28;20265;-56
2022/11/08 09:23:53;;;;;;;13.20;12.70;;;13.20;31.40;;;;;;4973652;28;20174;-52
2022/11/08 09:26:19;;;;;;;11.73;11.13;;;13.20;30.80;;;;;;4957506;28;20503;-53
2022/11/08 09:28:44;;;;;;;12.23;11.43;;;13.20;30.80;;;;;;4958171;28;20193;-53
2022/11/08 09:31:11;;;;;;;13.17;12.37;;;13.30;30.80;;;;;;4972981;28;20190;-51
2022/11/08 09:33:38;;;;;;;12.53;12.03;;;13.30;31.40;;;;;;4973837;28;20182;-53
2022/11/08 09:36:04;;;;;;;12.33;11.93;;;13.40;33.40;;;;;;4974560;28;20425;-55
2022/11/08 09:38:30;;;;;;;13.77;13.10;;;13.50;32.40;;;;;;4973259;28;20768;-51
2022/11/08 09:41:04;;;;;;;11.43;11.03;;;13.50;31.00;;;;;;4973596;28;20426;-55
2022/11/08 09:43:48;;;;;;;12.53;12.03;;;13.60;29.30;;;;;;4973421;28;20852;-53
2022/11/08 09:46:23;;;;;;;12.70;12.20;;;13.60;28.10;;;;;;4975360;28;20421;-51
2022/11/08 09:48:51;;;;;;;11.30;10.90;;;13.70;27.40;;;;;;4988619;28;20784;-53
2022/11/08 09:51:21;;;;;;;12.10;11.60;;;13.80;26.90;;;;;;4990888;28;20417;-55
2022/11/08 09:53:58;;;;;;;11.57;11.17;;;14.00;25.90;;;;;;4993367;28;20842;-54
2022/11/08 09:56:28;;;;;;;13.07;12.17;;;14.00;25.90;;;;;;4991910;28;20797;-53
2022/11/08 09:59:04;;;;;;;12.87;12.10;;;14.10;26.00;;;;;;4993379;28;20471;-54
2022/11/08 10:01:35;;;;;;;11.70;11.20;;;14.20;26.00;;;;;;4992711;28;20417;-52
2022/11/08 10:04:22;;;;;;;13.10;12.60;;;14.30;26.10;;;;;;4973806;28;20418;-54
2022/11/08 10:07:06;;;;;;;11.70;11.30;;;14.40;25.50;;;;;;4973915;28;20918;-54
2022/11/08 10:09:50;;;;;;;12.50;12.10;;;14.40;26.00;;;;;;4984718;28;20537;-52
2022/11/08 10:12:29;;;;;;;11.97;11.57;;;14.50;25.20;;;;;;4991480;28;20910;-49
2022/11/08 10:15:13;;;;;;;11.60;11.20;;;14.50;24.40;;;;;;4985002;28;20427;-51
2022/11/08 10:18:03;;;;;;;11.90;11.33;;;14.60;24.50;;;;;;4952445;29;20426;-53
2022/11/08 10:20:54;;;;;;;11.50;11.00;;;14.60;24.20;;;;;;4952765;28;20774;-50
2022/11/08 10:23:46;;;;;;;11.63;11.13;;;14.60;23.90;;;;;;4972685;28;20418;-51
2022/11/08 10:26:20;;;;;;;11.87;11.37;;;14.70;23.90;;;;;;4973166;28;20926;-54
2022/11/08 10:28:55;;;;;;;11.23;10.83;;;14.70;23.80;;;;;;4973436;28;20516;-54
2022/11/08 10:31:21;;;;;;;13.63;12.40;;;14.70;24.00;;;;;;4972544;28;20424;-51
2022/11/08 10:33:55;;;;;;;12.30;11.80;;;14.70;23.70;;;;;;4973219;28;20422;-52
2022/11/08 10:36:50;;;;;;;11.53;11.07;;;14.80;24.00;;;;;;4973042;28;20459;-53
2022/11/08 10:39:23;;;;;;;12.23;11.33;;;14.80;24.40;;;;;;4972981;28;20802;-50
2022/11/08 10:42:11;;;;;;;12.60;12.00;;;14.80;23.90;;;;;;4972456;28;20934;-48
2022/11/08 10:44:38;;;;;;;11.67;11.27;;;14.80;23.80;;;;;;4972916;28;20445;-50
2022/11/08 10:47:30;;;;;;;12.53;11.93;;;14.80;23.90;;;;;;4973004;28;20484;-49
2022/11/08 10:49:57;;;;;;;12.67;12.17;;;14.80;24.00;;;;;;4972448;28;20517;-53
2022/11/08 10:53:02;;;;;;;12.00;11.60;;;14.90;24.00;;;;;;4972788;28;20422;-49
2022/11/08 10:55:32;;;;;;;12.17;11.67;;;14.90;23.80;;;;;;4897598;29;20511;-53
2022/11/08 10:57:59;;;;;;;11.60;11.20;;;14.90;24.00;;;;;;4897021;29;20421;-53
2022/11/08 11:00:32;;;;;;;11.70;11.20;;;15.00;23.50;;;;;;4924466;29;20427;-54
2022/11/08 11:03:08;;;;;;;12.23;11.67;;;15.00;23.60;;;;;;4964657;28;20939;-58
2022/11/08 11:05:39;;;;;;;11.50;11.10;;;15.00;23.50;;;;;;4991343;28;20428;-57
2022/11/08 11:08:07;;;;;;;11.77;11.30;;;15.10;23.40;;;;;;4972811;28;20426;-58
2022/11/08 11:10:37;;;;;;;12.63;12.23;;;15.10;23.20;;;;;;4972273;28;20461;-57
2022/11/08 11:13:10;;;;;;;12.60;11.47;;;15.10;23.70;;;;;;4971378;28;20460;-57
2022/11/08 11:15:37;;;;;;;11.60;11.20;;;15.20;23.50;;;;;;4971273;28;20477;-57
2022/11/08 11:18:16;;;;;;;12.20;11.70;;;15.20;23.30;;;;;;4971808;28;20417;-58
2022/11/08 11:20:41;;;;;;;11.57;11.17;;;15.30;23.50;;;;;;4972149;28;20436;-57
2022/11/08 11:23:10;;;;;;;11.60;11.20;;;15.30;23.40;;;;;;4970303;28;20418;-56
2022/11/08 11:25:36;;;;;;;12.03;11.53;;;15.40;23.90;;;;;;4985729;28;20189;-57
2022/11/08 11:28:02;;;;;;;11.40;11.00;;;15.40;23.20;;;;;;4979742;28;20422;-57
2022/11/08 11:30:33;;;;;;;11.67;11.27;;;15.50;23.40;;;;;;4972067;28;20465;-54
2022/11/08 11:33:36;;;;;;;12.53;11.63;;;15.50;23.50;;;;;;4972921;28;20419;-55
2022/11/08 11:36:07;;;;;;;12.20;11.70;;;15.50;23.10;;;;;;4877694;29;20549;-55
2022/11/08 11:38:42;;;;;;;11.60;10.47;;;15.50;23.10;;;;;;4954811;28;20430;-57
2022/11/08 11:41:20;;;;;;;11.83;11.37;;;15.60;23.70;;;;;;4987181;28;20421;-54
2022/11/08 11:43:55;;;;;;;11.70;11.23;;;15.70;23.80;;;;;;4988724;28;20468;-54
2022/11/08 11:46:36;;;;;;;12.80;12.20;;;15.70;24.70;;;;;;4991872;28;20426;-54
2022/11/08 11:49:11;;;;;;;12.77;12.17;;;15.70;24.80;;;;;;4991607;28;20511;-51
2022/11/08 11:51:37;;;;;;;12.90;11.80;;;15.80;25.20;;;;;;4990444;28;20416;-54
2022/11/08 11:54:05;;;;;;;11.77;11.20;;;15.80;23.20;;;;;;4991693;28;20744;-51
2022/11/08 11:56:42;;;;;;;11.80;11.40;;;15.90;22.60;;;;;;4968615;28;20182;-52
2022/11/08 11:59:39;;;;;;;12.07;11.20;;;15.90;22.20;;;;;;4972241;28;20425;-54
2022/11/08 12:02:45;;;;;;;11.30;10.23;;;16.00;22.20;;;;;;4970152;28;20426;-54
2022/11/08 12:05:38;;;;;;;10.20;9.70;;;16.10;21.80;;;;;;4972036;28;20425;-52
2022/11/08 12:08:13;;;;;;;10.27;9.87;;;16.10;22.00;;;;;;4970946;28;20488;-51
2022/11/08 12:10:53;;;;;;;10.37;9.77;;;16.10;23.00;;;;;;4969146;28;20552;-51
2022/11/08 12:13:24;;;;;;;10.10;9.60;;;16.20;22.00;;;;;;4971667;28;20425;-52
2022/11/08 12:16:14;;;;;;;9.70;9.30;;;16.30;22.30;;;;;;4970779;28;20426;-52
2022/11/08 12:19:24;;;;;;;10.43;9.90;;;16.30;22.30;;;;;;4971407;28;20425;-50
2022/11/08 12:21:56;;;;;;;9.70;9.37;;;16.40;21.00;;;;;;4924441;28;20923;-54
2022/11/08 12:24:41;;;;;;;9.50;9.10;;;16.50;21.20;;;;;;4971632;28;20426;-52
2022/11/08 12:27:07;;;;;;;10.27;9.77;;;16.50;21.90;;;;;;4952324;29;20771;-54
2022/11/08 12:29:42;;;;;;;9.73;9.33;;;16.60;20.40;;;;;;4952118;29;20514;-56
2022/11/08 12:32:35;;;;;;;9.40;9.10;;;16.70;20.40;;;;;;4950822;29;20178;-51
2022/11/08 12:35:26;;;;;;;9.83;9.43;;;17.00;17.90;;;;;;4951673;29;20939;-54
2022/11/08 12:38:00;;;;;;;10.47;9.87;;;17.20;18.20;;;;;;4960733;28;20426;-54
2022/11/08 12:40:34;;;;;;;9.30;8.90;;;17.30;17.70;;;;;;4963089;28;20556;-51
2022/11/08 12:43:03;;;;;;;10.10;9.60;;;17.40;17.50;;;;;;4949355;29;20434;-53
2022/11/08 12:45:31;;;;;;;9.30;8.83;;;17.50;17.50;;;;;;4953945;28;20767;-50
2022/11/08 12:48:00;;;;;;;9.50;9.20;;;17.60;17.40;;;;;;4969779;28;20440;-51
2022/11/08 12:50:37;;;;;;;9.90;9.47;;;17.70;17.20;;;;;;4972954;28;20497;-52
2022/11/08 12:53:41;;;;;;;10.03;9.60;;;17.70;17.50;;;;;;4974347;28;20429;-52
2022/11/08 12:56:16;;;;;;;10.53;9.90;;;17.70;17.40;;;;;;4972389;28;20937;-49
2022/11/08 12:58:45;;;;;;;11.07;10.23;;;17.70;18.60;;;;;;4974213;28;20421;-49
2022/11/08 13:01:13;;;;;;;11.20;10.60;;;17.70;17.30;;;;;;4974304;28;20500;-53